sensor_id;sensor_type;location;lat;lon;timestamp;P1;durP1;ratioP1;P2;durP2;ratioP2
23800;SDS011;12081;48.614;10.226;2023-02-28T00:02:05;3.83;;;2.33;;
23800;SDS011;12081;48.614;10.226;2023-02-28T00:04:49;2.10;;;1.77;;
23800;SDS011;12081;48.614;10.226;2023-02-28T00:07:36;6.50;;;2.63;;
23800;SDS011;12081;48.614;10.226;2023-02-28T00:10:24;3.00;;;2.00;;
23800;SDS011;12081;48.614;10.226;2023-02-28T00:13:13;2.43;;;1.37;;
23800;SDS011;12081;48.614;10.226;2023-02-28T00:16:04;3.67;;;2.33;;
23800;SDS011;12081;48.614;10.226;2023-02-28T00:18:50;7.00;;;3.33;;
23800;SDS011;12081;48.614;10.226;2023-02-28T00:21:34;3.63;;;2.30;;
23800;SDS011;12081;48.614;10.226;2023-02-28T00:24:18;2.87;;;1.90;;
23800;SDS011;12081;48.614;10.226;2023-02-28T00:27:02;3.60;;;2.53;;
23800;SDS011;12081;48.614;10.226;2023-02-28T00:29:47;3.53;;;2.10;;
23800;SDS011;12081;48.614;10.226;2023-02-28T00:32:31;4.33;;;2.33;;
23800;SDS011;12081;48.614;10.226;2023-02-28T00:35:15;2.90;;;2.03;;
23800;SDS011;12081;48.614;10.226;2023-02-28T00:38:00;6.50;;;2.50;;
23800;SDS011;12081;48.614;10.226;2023-02-28T00:40:44;3.10;;;1.90;;
23800;SDS011;12081;48.614;10.226;2023-02-28T00:43:28;2.60;;;1.73;;
23800;SDS011;12081;48.614;10.226;2023-02-28T00:46:12;4.03;;;2.43;;
23800;SDS011;12081;48.614;10.226;2023-02-28T00:48:56;4.77;;;2.63;;
23800;SDS011;12081;48.614;10.226;2023-02-28T00:51:40;4.17;;;2.83;;
23800;SDS011;12081;48.614;10.226;2023-02-28T00:54:24;3.60;;;2.33;;
23800;SDS011;12081;48.614;10.226;2023-02-28T00:57:08;3.83;;;2.20;;
23800;SDS011;12081;48.614;10.226;2023-02-28T00:59:52;3.63;;;2.70;;
23800;SDS011;12081;48.614;10.226;2023-02-28T01:02:38;3.20;;;2.47;;
23800;SDS011;12081;48.614;10.226;2023-02-28T01:05:22;7.57;;;3.07;;
23800;SDS011;12081;48.614;10.226;2023-02-28T01:08:06;4.77;;;2.50;;
23800;SDS011;12081;48.614;10.226;2023-02-28T01:10:50;3.43;;;2.27;;
23800;SDS011;12081;48.614;10.226;2023-02-28T01:13:35;4.97;;;2.93;;
23800;SDS011;12081;48.614;10.226;2023-02-28T01:16:19;2.53;;;1.87;;
23800;SDS011;12081;48.614;10.226;2023-02-28T01:19:03;3.37;;;2.13;;
23800;SDS011;12081;48.614;10.226;2023-02-28T01:21:47;5.57;;;2.27;;
23800;SDS011;12081;48.614;10.226;2023-02-28T01:24:30;9.23;;;2.70;;
23800;SDS011;12081;48.614;10.226;2023-02-28T01:27:15;4.03;;;2.40;;
23800;SDS011;12081;48.614;10.226;2023-02-28T01:29:59;5.30;;;2.70;;
23800;SDS011;12081;48.614;10.226;2023-02-28T01:32:43;5.57;;;2.83;;
23800;SDS011;12081;48.614;10.226;2023-02-28T01:35:27;4.47;;;2.77;;
23800;SDS011;12081;48.614;10.226;2023-02-28T01:38:11;3.77;;;2.70;;
23800;SDS011;12081;48.614;10.226;2023-02-28T01:40:55;3.50;;;2.60;;
23800;SDS011;12081;48.614;10.226;2023-02-28T01:46:27;5.40;;;2.63;;
23800;SDS011;12081;48.614;10.226;2023-02-28T01:49:11;3.50;;;2.80;;
23800;SDS011;12081;48.614;10.226;2023-02-28T01:51:58;2.40;;;2.00;;
23800;SDS011;12081;48.614;10.226;2023-02-28T01:54:42;3.80;;;2.27;;
23800;SDS011;12081;48.614;10.226;2023-02-28T01:57:34;4.17;;;2.83;;
23800;SDS011;12081;48.614;10.226;2023-02-28T02:00:23;3.87;;;2.97;;
23800;SDS011;12081;48.614;10.226;2023-02-28T02:03:11;6.00;;;3.10;;
23800;SDS011;12081;48.614;10.226;2023-02-28T02:05:58;4.23;;;2.43;;
23800;SDS011;12081;48.614;10.226;2023-02-28T02:08:43;4.53;;;2.70;;
23800;SDS011;12081;48.614;10.226;2023-02-28T02:11:27;3.83;;;2.40;;
23800;SDS011;12081;48.614;10.226;2023-02-28T02:14:17;4.17;;;2.93;;
23800;SDS011;12081;48.614;10.226;2023-02-28T02:17:14;3.23;;;2.47;;
23800;SDS011;12081;48.614;10.226;2023-02-28T02:20:27;1.83;;;1.63;;
23800;SDS011;12081;48.614;10.226;2023-02-28T02:23:38;3.40;;;2.33;;
23800;SDS011;12081;48.614;10.226;2023-02-28T02:33:12;3.20;;;2.50;;
23800;SDS011;12081;48.614;10.226;2023-02-28T02:42:16;3.07;;;2.30;;
23800;SDS011;12081;48.614;10.226;2023-02-28T02:45:17;5.17;;;3.67;;
23800;SDS011;12081;48.614;10.226;2023-02-28T02:48:19;7.20;;;3.17;;
23800;SDS011;12081;48.614;10.226;2023-02-28T02:51:16;6.33;;;3.00;;
23800;SDS011;12081;48.614;10.226;2023-02-28T02:54:08;4.50;;;2.83;;
23800;SDS011;12081;48.614;10.226;2023-02-28T02:57:00;6.40;;;3.33;;
23800;SDS011;12081;48.614;10.226;2023-02-28T02:59:49;3.80;;;2.60;;
23800;SDS011;12081;48.614;10.226;2023-02-28T03:02:35;5.20;;;3.43;;
23800;SDS011;12081;48.614;10.226;2023-02-28T03:05:35;3.67;;;2.50;;
23800;SDS011;12081;48.614;10.226;2023-02-28T03:08:28;4.23;;;3.33;;
23800;SDS011;12081;48.614;10.226;2023-02-28T03:11:17;6.97;;;4.10;;
23800;SDS011;12081;48.614;10.226;2023-02-28T03:14:10;6.77;;;3.47;;
23800;SDS011;12081;48.614;10.226;2023-02-28T03:26:12;5.17;;;3.20;;
23800;SDS011;12081;48.614;10.226;2023-02-28T03:29:04;8.23;;;3.23;;
23800;SDS011;12081;48.614;10.226;2023-02-28T03:32:02;3.77;;;2.30;;
23800;SDS011;12081;48.614;10.226;2023-02-28T03:38:03;3.50;;;2.73;;
23800;SDS011;12081;48.614;10.226;2023-02-28T03:41:02;3.70;;;2.93;;
23800;SDS011;12081;48.614;10.226;2023-02-28T03:43:54;6.57;;;3.77;;
23800;SDS011;12081;48.614;10.226;2023-02-28T03:46:49;4.63;;;3.10;;
23800;SDS011;12081;48.614;10.226;2023-02-28T03:52:53;6.13;;;3.40;;
23800;SDS011;12081;48.614;10.226;2023-02-28T03:56:07;3.93;;;2.97;;
23800;SDS011;12081;48.614;10.226;2023-02-28T04:02:05;6.77;;;4.60;;
23800;SDS011;12081;48.614;10.226;2023-02-28T04:04:49;6.57;;;4.07;;
23800;SDS011;12081;48.614;10.226;2023-02-28T04:07:34;5.90;;;4.00;;
23800;SDS011;12081;48.614;10.226;2023-02-28T04:10:19;6.10;;;4.20;;
23800;SDS011;12081;48.614;10.226;2023-02-28T04:13:04;3.13;;;2.53;;
23800;SDS011;12081;48.614;10.226;2023-02-28T04:15:48;8.13;;;4.47;;
23800;SDS011;12081;48.614;10.226;2023-02-28T04:18:32;6.33;;;4.57;;
23800;SDS011;12081;48.614;10.226;2023-02-28T04:21:16;8.50;;;5.23;;
23800;SDS011;12081;48.614;10.226;2023-02-28T04:24:04;5.57;;;3.50;;
23800;SDS011;12081;48.614;10.226;2023-02-28T04:26:50;7.43;;;3.93;;
23800;SDS011;12081;48.614;10.226;2023-02-28T04:29:36;6.40;;;4.57;;
23800;SDS011;12081;48.614;10.226;2023-02-28T04:32:20;5.37;;;4.07;;
23800;SDS011;12081;48.614;10.226;2023-02-28T04:35:04;7.17;;;4.50;;
23800;SDS011;12081;48.614;10.226;2023-02-28T04:37:49;6.90;;;4.10;;
23800;SDS011;12081;48.614;10.226;2023-02-28T04:40:33;6.33;;;4.40;;
23800;SDS011;12081;48.614;10.226;2023-02-28T04:43:17;6.80;;;3.50;;
23800;SDS011;12081;48.614;10.226;2023-02-28T04:46:01;7.50;;;4.30;;
23800;SDS011;12081;48.614;10.226;2023-02-28T04:48:48;5.37;;;3.73;;
23800;SDS011;12081;48.614;10.226;2023-02-28T04:51:32;5.70;;;3.93;;
23800;SDS011;12081;48.614;10.226;2023-02-28T04:54:16;4.73;;;3.73;;
23800;SDS011;12081;48.614;10.226;2023-02-28T04:57:01;5.27;;;3.90;;
23800;SDS011;12081;48.614;10.226;2023-02-28T04:59:45;5.40;;;4.03;;
23800;SDS011;12081;48.614;10.226;2023-02-28T05:02:29;6.20;;;4.80;;
23800;SDS011;12081;48.614;10.226;2023-02-28T05:05:13;7.17;;;4.37;;
23800;SDS011;12081;48.614;10.226;2023-02-28T05:08:01;9.23;;;5.23;;
23800;SDS011;12081;48.614;10.226;2023-02-28T05:10:45;5.77;;;3.73;;
23800;SDS011;12081;48.614;10.226;2023-02-28T05:13:30;7.53;;;4.83;;
23800;SDS011;12081;48.614;10.226;2023-02-28T05:16:13;5.33;;;3.97;;
23800;SDS011;12081;48.614;10.226;2023-02-28T05:18:58;6.10;;;4.57;;
23800;SDS011;12081;48.614;10.226;2023-02-28T05:21:50;8.73;;;5.97;;
23800;SDS011;12081;48.614;10.226;2023-02-28T05:24:35;7.00;;;6.03;;
23800;SDS011;12081;48.614;10.226;2023-02-28T05:27:20;5.80;;;4.50;;
23800;SDS011;12081;48.614;10.226;2023-02-28T05:30:04;5.33;;;3.37;;
23800;SDS011;12081;48.614;10.226;2023-02-28T05:32:50;10.27;;;5.80;;
23800;SDS011;12081;48.614;10.226;2023-02-28T05:35:36;8.97;;;5.50;;
23800;SDS011;12081;48.614;10.226;2023-02-28T05:38:23;8.33;;;5.50;;
23800;SDS011;12081;48.614;10.226;2023-02-28T05:41:07;6.77;;;4.53;;
23800;SDS011;12081;48.614;10.226;2023-02-28T05:43:52;6.73;;;5.13;;
23800;SDS011;12081;48.614;10.226;2023-02-28T05:46:36;8.13;;;4.97;;
23800;SDS011;12081;48.614;10.226;2023-02-28T05:49:21;6.20;;;4.13;;
23800;SDS011;12081;48.614;10.226;2023-02-28T05:52:05;9.20;;;4.67;;
23800;SDS011;12081;48.614;10.226;2023-02-28T05:54:49;6.83;;;5.00;;
23800;SDS011;12081;48.614;10.226;2023-02-28T05:57:33;7.03;;;3.83;;
23800;SDS011;12081;48.614;10.226;2023-02-28T06:00:18;7.50;;;5.17;;
23800;SDS011;12081;48.614;10.226;2023-02-28T06:03:02;6.33;;;4.00;;
23800;SDS011;12081;48.614;10.226;2023-02-28T06:05:46;7.70;;;5.07;;
23800;SDS011;12081;48.614;10.226;2023-02-28T06:08:31;7.67;;;5.33;;
23800;SDS011;12081;48.614;10.226;2023-02-28T06:11:15;8.20;;;5.30;;
23800;SDS011;12081;48.614;10.226;2023-02-28T06:13:59;7.53;;;5.03;;
23800;SDS011;12081;48.614;10.226;2023-02-28T06:16:44;8.57;;;5.77;;
23800;SDS011;12081;48.614;10.226;2023-02-28T06:19:29;9.33;;;4.97;;
23800;SDS011;12081;48.614;10.226;2023-02-28T06:22:14;8.03;;;5.67;;
23800;SDS011;12081;48.614;10.226;2023-02-28T06:24:57;7.97;;;5.63;;
23800;SDS011;12081;48.614;10.226;2023-02-28T06:27:42;6.20;;;4.57;;
23800;SDS011;12081;48.614;10.226;2023-02-28T06:34:08;10.17;;;6.00;;
23800;SDS011;12081;48.614;10.226;2023-02-28T06:36:52;7.60;;;4.93;;
23800;SDS011;12081;48.614;10.226;2023-02-28T06:39:36;9.23;;;5.70;;
23800;SDS011;12081;48.614;10.226;2023-02-28T06:42:21;11.53;;;5.40;;
23800;SDS011;12081;48.614;10.226;2023-02-28T06:45:12;8.30;;;6.03;;
23800;SDS011;12081;48.614;10.226;2023-02-28T06:47:57;8.67;;;5.37;;
23800;SDS011;12081;48.614;10.226;2023-02-28T06:50:42;8.00;;;5.83;;
23800;SDS011;12081;48.614;10.226;2023-02-28T06:53:26;7.33;;;5.37;;
23800;SDS011;12081;48.614;10.226;2023-02-28T06:56:13;8.23;;;5.67;;
23800;SDS011;12081;48.614;10.226;2023-02-28T06:59:00;8.50;;;5.93;;
23800;SDS011;12081;48.614;10.226;2023-02-28T07:01:44;8.83;;;5.60;;
23800;SDS011;12081;48.614;10.226;2023-02-28T07:04:28;8.57;;;5.87;;
23800;SDS011;12081;48.614;10.226;2023-02-28T07:07:12;10.23;;;6.73;;
23800;SDS011;12081;48.614;10.226;2023-02-28T07:09:56;11.53;;;6.40;;
23800;SDS011;12081;48.614;10.226;2023-02-28T07:12:40;8.17;;;5.03;;
23800;SDS011;12081;48.614;10.226;2023-02-28T07:15:24;10.63;;;6.20;;
23800;SDS011;12081;48.614;10.226;2023-02-28T07:18:08;12.47;;;6.40;;
23800;SDS011;12081;48.614;10.226;2023-02-28T07:20:52;10.13;;;6.07;;
23800;SDS011;12081;48.614;10.226;2023-02-28T07:23:40;11.83;;;6.80;;
23800;SDS011;12081;48.614;10.226;2023-02-28T07:26:25;9.83;;;6.47;;
23800;SDS011;12081;48.614;10.226;2023-02-28T07:29:09;9.20;;;6.67;;
23800;SDS011;12081;48.614;10.226;2023-02-28T07:31:53;9.30;;;5.97;;
23800;SDS011;12081;48.614;10.226;2023-02-28T07:34:38;11.07;;;6.53;;
23800;SDS011;12081;48.614;10.226;2023-02-28T07:37:22;11.10;;;6.50;;
23800;SDS011;12081;48.614;10.226;2023-02-28T07:40:07;10.83;;;6.27;;
23800;SDS011;12081;48.614;10.226;2023-02-28T07:42:53;7.27;;;5.23;;
23800;SDS011;12081;48.614;10.226;2023-02-28T07:45:37;11.23;;;6.33;;
23800;SDS011;12081;48.614;10.226;2023-02-28T07:48:21;9.47;;;6.37;;
23800;SDS011;12081;48.614;10.226;2023-02-28T07:51:05;10.43;;;6.47;;
23800;SDS011;12081;48.614;10.226;2023-02-28T07:53:49;9.50;;;7.10;;
23800;SDS011;12081;48.614;10.226;2023-02-28T07:56:33;9.03;;;6.30;;
23800;SDS011;12081;48.614;10.226;2023-02-28T07:59:17;11.53;;;6.87;;
23800;SDS011;12081;48.614;10.226;2023-02-28T08:02:01;8.23;;;6.70;;
23800;SDS011;12081;48.614;10.226;2023-02-28T08:04:45;10.57;;;6.97;;
23800;SDS011;12081;48.614;10.226;2023-02-28T08:07:30;9.20;;;6.07;;
23800;SDS011;12081;48.614;10.226;2023-02-28T08:10:14;13.23;;;7.40;;
23800;SDS011;12081;48.614;10.226;2023-02-28T08:12:59;10.83;;;6.60;;
23800;SDS011;12081;48.614;10.226;2023-02-28T08:15:43;7.77;;;4.97;;
23800;SDS011;12081;48.614;10.226;2023-02-28T08:18:29;8.03;;;5.87;;
23800;SDS011;12081;48.614;10.226;2023-02-28T08:21:13;9.63;;;6.83;;
23800;SDS011;12081;48.614;10.226;2023-02-28T08:23:57;8.73;;;6.07;;
23800;SDS011;12081;48.614;10.226;2023-02-28T08:26:41;13.77;;;7.17;;
23800;SDS011;12081;48.614;10.226;2023-02-28T08:29:25;11.03;;;5.27;;
23800;SDS011;12081;48.614;10.226;2023-02-28T08:32:09;10.30;;;6.57;;
23800;SDS011;12081;48.614;10.226;2023-02-28T08:34:53;12.23;;;7.90;;
23800;SDS011;12081;48.614;10.226;2023-02-28T08:37:37;11.70;;;8.13;;
23800;SDS011;12081;48.614;10.226;2023-02-28T08:40:21;14.20;;;8.17;;
23800;SDS011;12081;48.614;10.226;2023-02-28T08:43:05;9.20;;;6.13;;
23800;SDS011;12081;48.614;10.226;2023-02-28T08:45:51;11.53;;;6.63;;
23800;SDS011;12081;48.614;10.226;2023-02-28T08:48:40;11.10;;;6.90;;
23800;SDS011;12081;48.614;10.226;2023-02-28T08:51:25;9.30;;;6.57;;
23800;SDS011;12081;48.614;10.226;2023-02-28T08:54:10;10.57;;;7.20;;
23800;SDS011;12081;48.614;10.226;2023-02-28T08:56:59;10.50;;;7.27;;
23800;SDS011;12081;48.614;10.226;2023-02-28T08:59:43;10.10;;;6.73;;
23800;SDS011;12081;48.614;10.226;2023-02-28T09:02:27;9.00;;;6.40;;
23800;SDS011;12081;48.614;10.226;2023-02-28T09:05:12;9.80;;;6.90;;
23800;SDS011;12081;48.614;10.226;2023-02-28T09:07:56;9.83;;;6.87;;
23800;SDS011;12081;48.614;10.226;2023-02-28T09:10:40;11.47;;;7.47;;
23800;SDS011;12081;48.614;10.226;2023-02-28T09:13:25;11.90;;;7.03;;
23800;SDS011;12081;48.614;10.226;2023-02-28T09:16:10;11.97;;;7.07;;
23800;SDS011;12081;48.614;10.226;2023-02-28T09:18:56;9.93;;;7.50;;
23800;SDS011;12081;48.614;10.226;2023-02-28T09:21:40;10.83;;;6.90;;
23800;SDS011;12081;48.614;10.226;2023-02-28T09:24:24;10.33;;;6.87;;
23800;SDS011;12081;48.614;10.226;2023-02-28T09:27:09;11.60;;;8.83;;
23800;SDS011;12081;48.614;10.226;2023-02-28T09:29:53;8.93;;;5.03;;
23800;SDS011;12081;48.614;10.226;2023-02-28T09:32:37;10.83;;;6.87;;
23800;SDS011;12081;48.614;10.226;2023-02-28T09:35:21;8.40;;;6.47;;
23800;SDS011;12081;48.614;10.226;2023-02-28T09:38:06;11.97;;;6.23;;
23800;SDS011;12081;48.614;10.226;2023-02-28T09:40:52;9.30;;;6.37;;
23800;SDS011;12081;48.614;10.226;2023-02-28T09:43:44;9.20;;;6.87;;
23800;SDS011;12081;48.614;10.226;2023-02-28T09:46:40;11.83;;;9.30;;
23800;SDS011;12081;48.614;10.226;2023-02-28T09:49:33;8.97;;;6.53;;
23800;SDS011;12081;48.614;10.226;2023-02-28T09:52:24;10.10;;;7.40;;
23800;SDS011;12081;48.614;10.226;2023-02-28T09:55:22;11.30;;;7.03;;
23800;SDS011;12081;48.614;10.226;2023-02-28T09:58:32;9.23;;;6.57;;
23800;SDS011;12081;48.614;10.226;2023-02-28T10:07:46;10.87;;;6.70;;
23800;SDS011;12081;48.614;10.226;2023-02-28T10:10:49;10.90;;;7.07;;
23800;SDS011;12081;48.614;10.226;2023-02-28T10:14:02;10.07;;;7.30;;
23800;SDS011;12081;48.614;10.226;2023-02-28T10:16:58;11.00;;;7.37;;
23800;SDS011;12081;48.614;10.226;2023-02-28T10:22:49;10.00;;;6.87;;
23800;SDS011;12081;48.614;10.226;2023-02-28T10:25:42;9.50;;;6.87;;
23800;SDS011;12081;48.614;10.226;2023-02-28T10:28:31;9.50;;;6.30;;
23800;SDS011;12081;48.614;10.226;2023-02-28T10:31:17;9.77;;;7.23;;
23800;SDS011;12081;48.614;10.226;2023-02-28T10:34:03;7.07;;;6.33;;
23800;SDS011;12081;48.614;10.226;2023-02-28T10:36:49;8.57;;;6.50;;
23800;SDS011;12081;48.614;10.226;2023-02-28T10:39:39;9.87;;;7.13;;
23800;SDS011;12081;48.614;10.226;2023-02-28T10:42:28;9.30;;;6.60;;
23800;SDS011;12081;48.614;10.226;2023-02-28T10:45:14;6.53;;;5.50;;
23800;SDS011;12081;48.614;10.226;2023-02-28T10:48:01;8.70;;;5.63;;
23800;SDS011;12081;48.614;10.226;2023-02-28T10:50:58;9.30;;;6.30;;
23800;SDS011;12081;48.614;10.226;2023-02-28T10:56:26;7.00;;;5.70;;
23800;SDS011;12081;48.614;10.226;2023-02-28T11:01:58;9.20;;;6.10;;
23800;SDS011;12081;48.614;10.226;2023-02-28T11:04:42;8.50;;;5.93;;
23800;SDS011;12081;48.614;10.226;2023-02-28T11:07:26;7.13;;;6.03;;
23800;SDS011;12081;48.614;10.226;2023-02-28T11:13:03;7.03;;;6.10;;
23800;SDS011;12081;48.614;10.226;2023-02-28T11:15:52;7.60;;;6.37;;
23800;SDS011;12081;48.614;10.226;2023-02-28T11:21:29;8.37;;;6.57;;
23800;SDS011;12081;48.614;10.226;2023-02-28T11:24:27;12.70;;;7.07;;
23800;SDS011;12081;48.614;10.226;2023-02-28T11:27:24;8.13;;;5.50;;
23800;SDS011;12081;48.614;10.226;2023-02-28T11:30:25;8.97;;;6.10;;
23800;SDS011;12081;48.614;10.226;2023-02-28T11:33:20;8.93;;;6.67;;
23800;SDS011;12081;48.614;10.226;2023-02-28T11:39:11;7.63;;;6.13;;
23800;SDS011;12081;48.614;10.226;2023-02-28T11:44:50;8.00;;;6.17;;
23800;SDS011;12081;48.614;10.226;2023-02-28T11:47:59;9.77;;;6.70;;
23800;SDS011;12081;48.614;10.226;2023-02-28T11:51:12;7.67;;;6.20;;
23800;SDS011;12081;48.614;10.226;2023-02-28T11:54:08;7.77;;;5.83;;
23800;SDS011;12081;48.614;10.226;2023-02-28T11:56:57;7.90;;;7.07;;
23800;SDS011;12081;48.614;10.226;2023-02-28T11:59:50;9.00;;;6.53;;
23800;SDS011;12081;48.614;10.226;2023-02-28T12:05:58;8.30;;;6.70;;
23800;SDS011;12081;48.614;10.226;2023-02-28T12:15:24;8.03;;;6.50;;
23800;SDS011;12081;48.614;10.226;2023-02-28T12:18:40;9.80;;;6.30;;
23800;SDS011;12081;48.614;10.226;2023-02-28T12:27:28;8.83;;;7.53;;
23800;SDS011;12081;48.614;10.226;2023-02-28T12:35:54;8.20;;;6.43;;
23800;SDS011;12081;48.614;10.226;2023-02-28T12:38:42;7.97;;;6.93;;
23800;SDS011;12081;48.614;10.226;2023-02-28T12:41:40;8.33;;;6.93;;
23800;SDS011;12081;48.614;10.226;2023-02-28T12:44:35;9.23;;;6.87;;
23800;SDS011;12081;48.614;10.226;2023-02-28T12:47:26;8.60;;;5.97;;
23800;SDS011;12081;48.614;10.226;2023-02-28T12:50:11;7.93;;;6.33;;
23800;SDS011;12081;48.614;10.226;2023-02-28T12:53:00;11.70;;;7.87;;
23800;SDS011;12081;48.614;10.226;2023-02-28T12:59:25;11.37;;;7.23;;
23800;SDS011;12081;48.614;10.226;2023-02-28T13:02:30;8.40;;;6.70;;
23800;SDS011;12081;48.614;10.226;2023-02-28T13:05:34;8.90;;;6.50;;
23800;SDS011;12081;48.614;10.226;2023-02-28T13:11:50;10.70;;;8.53;;
23800;SDS011;12081;48.614;10.226;2023-02-28T13:14:36;7.30;;;6.30;;
23800;SDS011;12081;48.614;10.226;2023-02-28T13:17:21;8.80;;;6.73;;
23800;SDS011;12081;48.614;10.226;2023-02-28T13:20:17;10.77;;;9.67;;
23800;SDS011;12081;48.614;10.226;2023-02-28T13:23:35;9.60;;;7.23;;
23800;SDS011;12081;48.614;10.226;2023-02-28T13:37:36;8.90;;;6.07;;
23800;SDS011;12081;48.614;10.226;2023-02-28T13:40:27;7.77;;;6.10;;
23800;SDS011;12081;48.614;10.226;2023-02-28T13:43:20;8.17;;;6.80;;
23800;SDS011;12081;48.614;10.226;2023-02-28T13:46:24;8.63;;;5.93;;
23800;SDS011;12081;48.614;10.226;2023-02-28T13:52:22;7.57;;;5.47;;
23800;SDS011;12081;48.614;10.226;2023-02-28T13:55:18;7.83;;;5.97;;
23800;SDS011;12081;48.614;10.226;2023-02-28T14:01:16;8.37;;;5.70;;
23800;SDS011;12081;48.614;10.226;2023-02-28T14:07:00;8.07;;;6.27;;
23800;SDS011;12081;48.614;10.226;2023-02-28T14:09:46;13.67;;;10.90;;
23800;SDS011;12081;48.614;10.226;2023-02-28T14:15:45;12.20;;;6.67;;
23800;SDS011;12081;48.614;10.226;2023-02-28T14:18:33;7.77;;;6.00;;
23800;SDS011;12081;48.614;10.226;2023-02-28T14:21:24;8.93;;;6.97;;
23800;SDS011;12081;48.614;10.226;2023-02-28T14:27:40;7.97;;;6.17;;
23800;SDS011;12081;48.614;10.226;2023-02-28T14:31:01;7.67;;;6.20;;
23800;SDS011;12081;48.614;10.226;2023-02-28T14:36:49;7.07;;;5.90;;
23800;SDS011;12081;48.614;10.226;2023-02-28T14:39:36;7.10;;;5.87;;
23800;SDS011;12081;48.614;10.226;2023-02-28T14:45:19;9.93;;;6.70;;
23800;SDS011;12081;48.614;10.226;2023-02-28T14:48:08;8.07;;;6.70;;
23800;SDS011;12081;48.614;10.226;2023-02-28T14:50:54;8.27;;;6.53;;
23800;SDS011;12081;48.614;10.226;2023-02-28T14:53:44;7.50;;;6.03;;
23800;SDS011;12081;48.614;10.226;2023-02-28T14:56:36;7.83;;;6.53;;
23800;SDS011;12081;48.614;10.226;2023-02-28T14:59:29;9.07;;;6.33;;
23800;SDS011;12081;48.614;10.226;2023-02-28T15:02:22;8.33;;;6.87;;
23800;SDS011;12081;48.614;10.226;2023-02-28T15:05:19;8.57;;;6.40;;
23800;SDS011;12081;48.614;10.226;2023-02-28T15:08:09;12.27;;;6.03;;
23800;SDS011;12081;48.614;10.226;2023-02-28T15:11:13;9.70;;;6.73;;
23800;SDS011;12081;48.614;10.226;2023-02-28T15:14:02;9.00;;;7.20;;
23800;SDS011;12081;48.614;10.226;2023-02-28T15:17:00;9.70;;;6.93;;
23800;SDS011;12081;48.614;10.226;2023-02-28T15:19:50;9.77;;;6.77;;
23800;SDS011;12081;48.614;10.226;2023-02-28T15:22:36;21.37;;;13.90;;
23800;SDS011;12081;48.614;10.226;2023-02-28T15:25:22;9.00;;;6.97;;
23800;SDS011;12081;48.614;10.226;2023-02-28T15:28:09;11.57;;;7.40;;
23800;SDS011;12081;48.614;10.226;2023-02-28T15:30:58;10.33;;;7.37;;
23800;SDS011;12081;48.614;10.226;2023-02-28T15:33:55;10.47;;;7.33;;
23800;SDS011;12081;48.614;10.226;2023-02-28T15:36:41;10.23;;;6.30;;
23800;SDS011;12081;48.614;10.226;2023-02-28T15:39:26;9.30;;;7.00;;
23800;SDS011;12081;48.614;10.226;2023-02-28T15:42:16;8.63;;;6.27;;
23800;SDS011;12081;48.614;10.226;2023-02-28T15:45:02;10.43;;;7.73;;
23800;SDS011;12081;48.614;10.226;2023-02-28T15:47:47;9.07;;;7.00;;
23800;SDS011;12081;48.614;10.226;2023-02-28T15:50:34;10.27;;;7.20;;
23800;SDS011;12081;48.614;10.226;2023-02-28T15:53:19;8.73;;;6.67;;
23800;SDS011;12081;48.614;10.226;2023-02-28T15:56:23;9.17;;;6.80;;
23800;SDS011;12081;48.614;10.226;2023-02-28T15:59:12;11.50;;;7.90;;
23800;SDS011;12081;48.614;10.226;2023-02-28T16:02:12;9.63;;;6.77;;
23800;SDS011;12081;48.614;10.226;2023-02-28T16:07:49;8.43;;;6.63;;
23800;SDS011;12081;48.614;10.226;2023-02-28T16:10:33;10.77;;;8.17;;
23800;SDS011;12081;48.614;10.226;2023-02-28T16:13:17;11.33;;;7.13;;
23800;SDS011;12081;48.614;10.226;2023-02-28T16:16:02;9.93;;;7.30;;
23800;SDS011;12081;48.614;10.226;2023-02-28T16:18:47;10.10;;;7.43;;
23800;SDS011;12081;48.614;10.226;2023-02-28T16:21:31;11.30;;;8.07;;
23800;SDS011;12081;48.614;10.226;2023-02-28T16:24:15;11.17;;;7.53;;
23800;SDS011;12081;48.614;10.226;2023-02-28T16:26:59;11.77;;;8.10;;
23800;SDS011;12081;48.614;10.226;2023-02-28T16:29:43;11.97;;;9.00;;
23800;SDS011;12081;48.614;10.226;2023-02-28T16:32:28;36.23;;;25.53;;
23800;SDS011;12081;48.614;10.226;2023-02-28T16:35:13;13.23;;;9.77;;
23800;SDS011;12081;48.614;10.226;2023-02-28T16:37:58;12.80;;;8.80;;
23800;SDS011;12081;48.614;10.226;2023-02-28T16:40:43;13.80;;;8.77;;
23800;SDS011;12081;48.614;10.226;2023-02-28T16:43:29;12.20;;;9.20;;
23800;SDS011;12081;48.614;10.226;2023-02-28T16:46:13;11.77;;;8.20;;
23800;SDS011;12081;48.614;10.226;2023-02-28T16:48:58;12.03;;;8.60;;
23800;SDS011;12081;48.614;10.226;2023-02-28T16:51:42;12.27;;;8.47;;
23800;SDS011;12081;48.614;10.226;2023-02-28T16:54:26;10.80;;;8.23;;
23800;SDS011;12081;48.614;10.226;2023-02-28T16:57:18;12.03;;;9.90;;
23800;SDS011;12081;48.614;10.226;2023-02-28T17:00:06;24.97;;;22.43;;
23800;SDS011;12081;48.614;10.226;2023-02-28T17:02:51;23.53;;;19.47;;
23800;SDS011;12081;48.614;10.226;2023-02-28T17:05:37;16.90;;;12.00;;
23800;SDS011;12081;48.614;10.226;2023-02-28T17:08:23;20.17;;;13.13;;
23800;SDS011;12081;48.614;10.226;2023-02-28T17:11:08;19.40;;;13.80;;
23800;SDS011;12081;48.614;10.226;2023-02-28T17:13:52;26.23;;;20.50;;
23800;SDS011;12081;48.614;10.226;2023-02-28T17:16:40;39.53;;;31.23;;
23800;SDS011;12081;48.614;10.226;2023-02-28T17:19:25;21.60;;;16.60;;
23800;SDS011;12081;48.614;10.226;2023-02-28T17:22:10;27.47;;;17.97;;
23800;SDS011;12081;48.614;10.226;2023-02-28T17:24:55;33.83;;;21.97;;
23800;SDS011;12081;48.614;10.226;2023-02-28T17:27:39;21.40;;;15.10;;
23800;SDS011;12081;48.614;10.226;2023-02-28T17:30:24;23.07;;;15.60;;
23800;SDS011;12081;48.614;10.226;2023-02-28T17:33:13;29.47;;;18.87;;
23800;SDS011;12081;48.614;10.226;2023-02-28T17:35:58;31.47;;;25.50;;
23800;SDS011;12081;48.614;10.226;2023-02-28T17:38:42;32.50;;;25.43;;
23800;SDS011;12081;48.614;10.226;2023-02-28T17:41:26;42.20;;;31.77;;
23800;SDS011;12081;48.614;10.226;2023-02-28T17:44:13;25.10;;;14.97;;
23800;SDS011;12081;48.614;10.226;2023-02-28T17:46:57;25.93;;;18.33;;
23800;SDS011;12081;48.614;10.226;2023-02-28T17:49:43;42.40;;;23.77;;
23800;SDS011;12081;48.614;10.226;2023-02-28T17:52:27;68.37;;;46.97;;
23800;SDS011;12081;48.614;10.226;2023-02-28T17:55:13;40.40;;;28.93;;
23800;SDS011;12081;48.614;10.226;2023-02-28T17:57:57;27.97;;;19.60;;
23800;SDS011;12081;48.614;10.226;2023-02-28T18:00:41;26.90;;;19.83;;
23800;SDS011;12081;48.614;10.226;2023-02-28T18:03:25;25.30;;;18.17;;
23800;SDS011;12081;48.614;10.226;2023-02-28T18:06:16;24.37;;;15.80;;
23800;SDS011;12081;48.614;10.226;2023-02-28T18:09:04;17.50;;;12.83;;
23800;SDS011;12081;48.614;10.226;2023-02-28T18:11:52;18.73;;;12.97;;
23800;SDS011;12081;48.614;10.226;2023-02-28T18:14:38;18.90;;;12.80;;
23800;SDS011;12081;48.614;10.226;2023-02-28T18:17:22;17.70;;;12.37;;
23800;SDS011;12081;48.614;10.226;2023-02-28T18:20:06;16.80;;;11.03;;
23800;SDS011;12081;48.614;10.226;2023-02-28T18:22:53;15.43;;;9.87;;
23800;SDS011;12081;48.614;10.226;2023-02-28T18:25:38;13.77;;;9.27;;
23800;SDS011;12081;48.614;10.226;2023-02-28T18:28:24;15.43;;;9.33;;
23800;SDS011;12081;48.614;10.226;2023-02-28T18:31:16;17.80;;;11.37;;
23800;SDS011;12081;48.614;10.226;2023-02-28T18:34:01;14.23;;;9.50;;
23800;SDS011;12081;48.614;10.226;2023-02-28T18:36:46;14.50;;;10.63;;
23800;SDS011;12081;48.614;10.226;2023-02-28T18:39:31;13.37;;;9.33;;